PWSweather.com
Personal Weather Stations
Station Observations
NBW76
Silver Creek, North Bend, WA 98065

Silver CreekNorth Bend, WA 98065

Lat: 47.4993612, Lon: -121.7783245

Elevation: 443

Station Type: Davisd VP2 + Solar + UV + Webcam

www.northbendweather.com

High Low Average
Temperature 44.9°F7.2°F 39.3°F4.1°F 41.6°F5.3°F
Dew Point 41.4°F5.2°F 37.6°F3.1°F 39.3°F4.1°F
Winds 6.9 mph E11.1 mph E Calm Calm 2.0 mph 3.2 mph
Wind Gusts 11.5 mph18.5 mph -- 4.1 mph6.6 mph
Humidity 95% 79% 92%
Pressure 29.71 in1006.10 in 29.52 in999.70 in -
Precipitation 0.53 in13.50 in - -
Hour Temp Dew Point Humidity Winds Wind Gusts Pressure Precip Precip Rate Daily Precip Total
12:00 AM 40.7°F4.8°C 39.1°F3.9°C 94% 1.2 mph ESE1.9 kmh ESE 2.3 mph3.7 kmh 29.52 in999.7 mb - 0.00 in0.0 mm 0.00 in0.0 mm
12:10 AM 40.7°F4.8°C 39.1°F3.9°C 94% Calm Calm -- 29.52 in999.7 mb - 0.00 in0.0 mm 0.00 in0.0 mm
12:20 AM 40.8°F4.9°C 39.2°F4.0°C 94% 1.2 mph NE1.9 kmh NE -- 29.52 in999.7 mb - 0.00 in0.0 mm 0.00 in0.0 mm
12:30 AM 40.8°F4.9°C 39.2°F4.0°C 94% Calm Calm 1.2 mph1.9 kmh 29.52 in999.7 mb - 0.01 in0.3 mm 0.01 in0.3 mm
12:40 AM 40.8°F4.9°C 39.2°F4.0°C 94% Calm Calm -- 29.52 in999.7 mb - 0.00 in0.0 mm 0.01 in0.3 mm
12:50 AM 40.7°F4.8°C 39.1°F3.9°C 94% 1.2 mph ENE1.9 kmh ENE 3.5 mph5.6 kmh 29.52 in999.7 mb - 0.01 in0.3 mm 0.02 in0.5 mm
01:00 AM 40.8°F4.9°C 39.2°F4.0°C 94% 1.2 mph SSE1.9 kmh SSE 2.3 mph3.7 kmh 29.52 in999.7 mb - 0.00 in0.0 mm 0.02 in0.5 mm
01:10 AM 40.9°F4.9°C 39.3°F4.1°C 94% Calm Calm 1.2 mph1.9 kmh 29.52 in999.7 mb - 0.00 in0.0 mm 0.02 in0.5 mm
01:20 AM 41.0°F5.0°C 39.4°F4.1°C 94% 1.2 mph ESE1.9 kmh ESE 5.8 mph9.3 kmh 29.53 in1000.0 mb - 0.00 in0.0 mm 0.02 in0.5 mm
01:30 AM 41.9°F5.5°C 39.7°F4.3°C 92% 1.2 mph SE1.9 kmh SE 3.5 mph5.6 kmh 29.52 in999.7 mb - 0.00 in0.0 mm 0.02 in0.5 mm
01:40 AM 41.5°F5.3°C 39.3°F4.1°C 92% Calm Calm -- 29.53 in1000.0 mb - 0.00 in0.0 mm 0.02 in0.5 mm
01:50 AM 41.4°F5.2°C 39.5°F4.2°C 93% 3.5 mph NE5.6 kmh NE 4.6 mph7.4 kmh 29.53 in1000.0 mb - 0.00 in0.0 mm 0.02 in0.5 mm
02:00 AM 41.5°F5.3°C 39.6°F4.2°C 93% Calm Calm 1.2 mph1.9 kmh 29.53 in1000.0 mb - 0.00 in0.0 mm 0.02 in0.5 mm
02:10 AM 41.9°F5.5°C 39.7°F4.3°C 92% Calm Calm 3.5 mph5.6 kmh 29.54 in1000.3 mb - 0.00 in0.0 mm 0.02 in0.5 mm
02:20 AM 42.5°F5.8°C 39.8°F4.3°C 90% 2.3 mph E3.7 kmh E 3.5 mph5.6 kmh 29.53 in1000.0 mb - 0.00 in0.0 mm 0.02 in0.5 mm
02:30 AM 43.3°F6.3°C 39.7°F4.3°C 87% 6.9 mph E11.1 kmh E 11.5 mph18.5 kmh 29.54 in1000.3 mb - 0.00 in0.0 mm 0.02 in0.5 mm
02:40 AM 43.6°F6.4°C 39.1°F3.9°C 84% 3.5 mph ESE5.6 kmh ESE 6.9 mph11.1 kmh 29.54 in1000.3 mb - 0.00 in0.0 mm 0.02 in0.5 mm
02:50 AM 42.9°F6.1°C 39.0°F3.9°C 86% 2.3 mph SE3.7 kmh SE 4.6 mph7.4 kmh 29.54 in1000.3 mb - 0.00 in0.0 mm 0.02 in0.5 mm
03:00 AM 43.3°F6.3°C 39.1°F3.9°C 85% 2.3 mph ESE3.7 kmh ESE 10.4 mph16.7 kmh 29.54 in1000.3 mb - 0.00 in0.0 mm 0.02 in0.5 mm
03:10 AM 44.9°F7.2°C 38.8°F3.8°C 79% 4.6 mph ESE7.4 kmh ESE 4.6 mph7.4 kmh 29.54 in1000.3 mb - 0.00 in0.0 mm 0.02 in0.5 mm
03:20 AM 43.4°F6.3°C 38.9°F3.8°C 84% 2.3 mph SSE3.7 kmh SSE 3.5 mph5.6 kmh 29.55 in1000.7 mb - 0.00 in0.0 mm 0.02 in0.5 mm
03:30 AM 42.3°F5.7°C 39.0°F3.9°C 88% 1.2 mph SE1.9 kmh SE 4.6 mph7.4 kmh 29.55 in1000.7 mb - 0.00 in0.0 mm 0.02 in0.5 mm
03:40 AM 42.4°F5.8°C 39.4°F4.1°C 89% 1.2 mph SE1.9 kmh SE 3.5 mph5.6 kmh 29.55 in1000.7 mb - 0.01 in0.3 mm 0.03 in0.8 mm
03:50 AM 42.3°F5.7°C 39.3°F4.1°C 89% 1.2 mph S1.9 kmh S 2.3 mph3.7 kmh 29.56 in1001.0 mb - 0.00 in0.0 mm 0.03 in0.8 mm
04:00 AM 42.3°F5.7°C 39.3°F4.1°C 89% 1.2 mph SE1.9 kmh SE 2.3 mph3.7 kmh 29.56 in1001.0 mb - 0.01 in0.3 mm 0.04 in1.0 mm
04:10 AM 42.0°F5.6°C 39.3°F4.1°C 90% 2.3 mph NE3.7 kmh NE 6.9 mph11.1 kmh 29.56 in1001.0 mb - 0.02 in0.5 mm 0.06 in1.5 mm
04:20 AM 41.7°F5.4°C 39.3°F4.1°C 91% 1.2 mph ESE1.9 kmh ESE 3.5 mph5.6 kmh 29.56 in1001.0 mb - 0.02 in0.5 mm 0.08 in2.0 mm
04:30 AM 41.7°F5.4°C 39.3°F4.1°C 91% 2.3 mph NE3.7 kmh NE 3.5 mph5.6 kmh 29.56 in1001.0 mb - 0.01 in0.3 mm 0.09 in2.3 mm
04:40 AM 41.6°F5.3°C 39.1°F3.9°C 91% 3.5 mph E5.6 kmh E 6.9 mph11.1 kmh 29.56 in1001.0 mb - 0.02 in0.5 mm 0.11 in2.8 mm
04:50 AM 41.5°F5.3°C 39.1°F3.9°C 91% Calm Calm 3.5 mph5.6 kmh 29.57 in1001.4 mb - 0.01 in0.3 mm 0.12 in3.0 mm
05:00 AM 41.3°F5.2°C 38.8°F3.8°C 91% 1.2 mph E1.9 kmh E 1.2 mph1.9 kmh 29.57 in1001.4 mb - 0.00 in0.0 mm 0.12 in3.0 mm
05:10 AM 41.1°F5.1°C 39.0°F3.9°C 92% Calm Calm 1.2 mph1.9 kmh 29.57 in1001.4 mb - 0.00 in0.0 mm 0.12 in3.0 mm
05:20 AM 41.9°F5.5°C 39.4°F4.1°C 91% 4.6 mph E7.4 kmh E 10.4 mph16.7 kmh 29.58 in1001.7 mb - 0.00 in0.0 mm 0.12 in3.0 mm
05:30 AM 42.3°F5.7°C 39.3°F4.1°C 89% 3.5 mph E5.6 kmh E 11.5 mph18.5 kmh 29.57 in1001.4 mb - 0.00 in0.0 mm 0.12 in3.0 mm
05:40 AM 42.7°F5.9°C 39.1°F3.9°C 87% 2.3 mph ESE3.7 kmh ESE 9.2 mph14.8 kmh 29.57 in1001.4 mb - 0.00 in0.0 mm 0.12 in3.0 mm
05:50 AM 42.9°F6.1°C 39.0°F3.9°C 86% 3.5 mph SE5.6 kmh SE 5.8 mph9.3 kmh 29.57 in1001.4 mb - 0.00 in0.0 mm 0.12 in3.0 mm
06:00 AM 42.4°F5.8°C 38.8°F3.8°C 87% 5.8 mph ESE9.3 kmh ESE 5.8 mph9.3 kmh 29.58 in1001.7 mb - 0.01 in0.3 mm 0.13 in3.3 mm
06:10 AM 42.0°F5.6°C 39.0°F3.9°C 89% 3.5 mph E5.6 kmh E 10.4 mph16.7 kmh 29.58 in1001.7 mb - 0.01 in0.3 mm 0.14 in3.6 mm
06:20 AM 41.6°F5.3°C 38.9°F3.8°C 90% 2.3 mph ESE3.7 kmh ESE 3.5 mph5.6 kmh 29.58 in1001.7 mb - 0.00 in0.0 mm 0.14 in3.6 mm
06:30 AM 41.7°F5.4°C 39.0°F3.9°C 90% 4.6 mph SE7.4 kmh SE 6.9 mph11.1 kmh 29.58 in1001.7 mb - 0.01 in0.3 mm 0.15 in3.8 mm
06:40 AM 41.4°F5.2°C 38.7°F3.7°C 90% 1.2 mph SE1.9 kmh SE 3.5 mph5.6 kmh 29.58 in1001.7 mb - 0.00 in0.0 mm 0.15 in3.8 mm
06:50 AM 41.1°F5.1°C 38.7°F3.7°C 91% 1.2 mph ESE1.9 kmh ESE 3.5 mph5.6 kmh 29.59 in1002.0 mb - 0.00 in0.0 mm 0.15 in3.8 mm
07:00 AM 41.1°F5.1°C 38.9°F3.8°C 92% 3.5 mph SE5.6 kmh SE 6.9 mph11.1 kmh 29.59 in1002.0 mb - 0.00 in0.0 mm 0.15 in3.8 mm
07:10 AM 41.3°F5.2°C 38.9°F3.8°C 91% 4.6 mph SE7.4 kmh SE 11.5 mph18.5 kmh 29.59 in1002.0 mb - 0.00 in0.0 mm 0.15 in3.8 mm
07:20 AM 42.2°F5.7°C 39.2°F4.0°C 89% 4.6 mph E7.4 kmh E 11.5 mph18.5 kmh 29.59 in1002.0 mb - 0.00 in0.0 mm 0.15 in3.8 mm
07:30 AM 41.9°F5.5°C 38.9°F3.8°C 89% 2.3 mph SE3.7 kmh SE 5.8 mph9.3 kmh 29.59 in1002.0 mb - 0.00 in0.0 mm 0.15 in3.8 mm
07:40 AM 41.9°F5.5°C 38.9°F3.8°C 89% 3.5 mph SE5.6 kmh SE 5.8 mph9.3 kmh 29.60 in1002.4 mb - 0.00 in0.0 mm 0.15 in3.8 mm
07:50 AM 41.3°F5.2°C 38.9°F3.8°C 91% 1.2 mph SE1.9 kmh SE 2.3 mph3.7 kmh 29.60 in1002.4 mb - 0.00 in0.0 mm 0.15 in3.8 mm
08:00 AM 41.2°F5.1°C 38.8°F3.8°C 91% 3.5 mph SE5.6 kmh SE 4.6 mph7.4 kmh 29.60 in1002.4 mb - 0.01 in0.3 mm 0.16 in4.1 mm
08:10 AM 41.0°F5.0°C 38.9°F3.8°C 92% 3.5 mph SE5.6 kmh SE 3.5 mph5.6 kmh 29.60 in1002.4 mb - 0.00 in0.0 mm 0.16 in4.1 mm
08:20 AM 41.0°F5.0°C 38.9°F3.8°C 92% 3.5 mph SE5.6 kmh SE 4.6 mph7.4 kmh 29.61 in1002.7 mb - 0.00 in0.0 mm 0.16 in4.1 mm
08:30 AM 41.1°F5.1°C 39.2°F4.0°C 93% 2.3 mph SSE3.7 kmh SSE 3.5 mph5.6 kmh 29.61 in1002.7 mb - 0.00 in0.0 mm 0.16 in4.1 mm
08:40 AM 41.1°F5.1°C 39.2°F4.0°C 93% 4.6 mph SE7.4 kmh SE 6.9 mph11.1 kmh 29.61 in1002.7 mb - 0.00 in0.0 mm 0.16 in4.1 mm
08:50 AM 41.4°F5.2°C 39.2°F4.0°C 92% 6.9 mph ESE11.1 kmh ESE 10.4 mph16.7 kmh 29.62 in1003.0 mb - 0.00 in0.0 mm 0.16 in4.1 mm
09:00 AM 41.5°F5.3°C 39.3°F4.1°C 92% 3.5 mph E5.6 kmh E 3.5 mph5.6 kmh 29.62 in1003.0 mb - 0.00 in0.0 mm 0.16 in4.1 mm
09:10 AM 41.6°F5.3°C 39.2°F4.0°C 91% 1.2 mph ESE1.9 kmh ESE 2.3 mph3.7 kmh 29.62 in1003.0 mb - 0.00 in0.0 mm 0.16 in4.1 mm
09:20 AM 42.2°F5.7°C 39.7°F4.3°C 91% 1.2 mph ENE1.9 kmh ENE 3.5 mph5.6 kmh 29.62 in1003.0 mb - 0.00 in0.0 mm 0.16 in4.1 mm
09:30 AM 42.3°F5.7°C 39.9°F4.4°C 91% 1.2 mph SE1.9 kmh SE -- 29.62 in1003.0 mb - 0.00 in0.0 mm 0.16 in4.1 mm
09:40 AM 42.1°F5.6°C 39.9°F4.4°C 92% 5.8 mph ESE9.3 kmh ESE 5.8 mph9.3 kmh 29.63 in1003.4 mb - 0.01 in0.3 mm 0.17 in4.3 mm
09:50 AM 41.9°F5.5°C 39.7°F4.3°C 92% Calm Calm 1.2 mph1.9 kmh 29.63 in1003.4 mb - 0.02 in0.5 mm 0.19 in4.8 mm
10:00 AM 42.1°F5.6°C 39.9°F4.4°C 92% 1.2 mph ESE1.9 kmh ESE 3.5 mph5.6 kmh 29.63 in1003.4 mb - 0.00 in0.0 mm 0.19 in4.8 mm
10:10 AM 42.3°F5.7°C 40.4°F4.7°C 93% Calm Calm 2.3 mph3.7 kmh 29.63 in1003.4 mb - 0.00 in0.0 mm 0.19 in4.8 mm
10:20 AM 42.4°F5.8°C 40.5°F4.7°C 93% 1.2 mph ESE1.9 kmh ESE 3.5 mph5.6 kmh 29.64 in1003.7 mb - 0.00 in0.0 mm 0.19 in4.8 mm
10:30 AM 42.5°F5.8°C 40.6°F4.8°C 93% 2.3 mph ESE3.7 kmh ESE 3.5 mph5.6 kmh 29.64 in1003.7 mb - 0.01 in0.3 mm 0.20 in5.1 mm
10:40 AM 42.4°F5.8°C 40.5°F4.7°C 93% Calm Calm -- 29.64 in1003.7 mb - 0.01 in0.3 mm 0.21 in5.3 mm
10:50 AM 42.5°F5.8°C 40.6°F4.8°C 93% Calm Calm 2.3 mph3.7 kmh 29.64 in1003.7 mb - 0.00 in0.0 mm 0.21 in5.3 mm
11:00 AM 42.6°F5.9°C 40.7°F4.8°C 93% Calm Calm 1.2 mph1.9 kmh 29.64 in1003.7 mb - 0.01 in0.3 mm 0.22 in5.6 mm
11:10 AM 42.7°F5.9°C 41.1°F5.1°C 94% Calm Calm 1.2 mph1.9 kmh 29.64 in1003.7 mb - 0.01 in0.3 mm 0.23 in5.8 mm
11:20 AM 42.4°F5.8°C 40.5°F4.7°C 93% 3.5 mph ESE5.6 kmh ESE 4.6 mph7.4 kmh 29.64 in1003.7 mb - 0.01 in0.3 mm 0.24 in6.1 mm
11:30 AM 42.3°F5.7°C 40.4°F4.7°C 93% 3.5 mph E5.6 kmh E 3.5 mph5.6 kmh 29.64 in1003.7 mb - 0.00 in0.0 mm 0.24 in6.1 mm
11:40 AM 42.6°F5.9°C 40.7°F4.8°C 93% 2.3 mph ESE3.7 kmh ESE 4.6 mph7.4 kmh 29.63 in1003.4 mb - 0.01 in0.3 mm 0.25 in6.4 mm
11:50 AM 42.8°F6.0°C 40.9°F4.9°C 93% 4.6 mph SE7.4 kmh SE 5.8 mph9.3 kmh 29.63 in1003.4 mb - 0.00 in0.0 mm 0.25 in6.4 mm
12:00 PM 42.8°F6.0°C 40.9°F4.9°C 93% 2.3 mph SE3.7 kmh SE 5.8 mph9.3 kmh 29.63 in1003.4 mb - 0.00 in0.0 mm 0.25 in6.4 mm
12:10 PM 42.6°F5.9°C 40.7°F4.8°C 93% 1.2 mph SE1.9 kmh SE 2.3 mph3.7 kmh 29.62 in1003.0 mb - 0.01 in0.3 mm 0.26 in6.6 mm
12:20 PM 42.7°F5.9°C 41.1°F5.1°C 94% 1.2 mph ESE1.9 kmh ESE 2.3 mph3.7 kmh 29.63 in1003.4 mb - 0.00 in0.0 mm 0.26 in6.6 mm
12:30 PM 42.5°F5.8°C 40.6°F4.8°C 93% 2.3 mph SE3.7 kmh SE 3.5 mph5.6 kmh 29.62 in1003.0 mb - 0.00 in0.0 mm 0.26 in6.6 mm
12:40 PM 42.5°F5.8°C 40.9°F4.9°C 94% Calm Calm 1.2 mph1.9 kmh 29.62 in1003.0 mb - 0.01 in0.3 mm 0.27 in6.9 mm
12:50 PM 42.3°F5.7°C 40.5°F4.7°C 93% 2.3 mph SE3.7 kmh SE 3.5 mph5.6 kmh 29.62 in1003.0 mb - 0.00 in0.0 mm 0.27 in6.9 mm
01:00 PM 42.5°F5.8°C 40.6°F4.8°C 93% 1.2 mph SE1.9 kmh SE 3.5 mph5.6 kmh 29.62 in1003.0 mb - 0.00 in0.0 mm 0.27 in6.9 mm
01:10 PM 42.8°F6.0°C 41.2°F5.1°C 94% Calm Calm -- 29.62 in1003.0 mb - 0.00 in0.0 mm 0.27 in6.9 mm
01:20 PM 42.9°F6.1°C 41.3°F5.2°C 94% Calm Calm 1.2 mph1.9 kmh 29.62 in1003.0 mb - 0.00 in0.0 mm 0.27 in6.9 mm
01:30 PM 42.9°F6.1°C 41.3°F5.2°C 94% Calm Calm -- 29.62 in1003.0 mb - 0.00 in0.0 mm 0.27 in6.9 mm
01:40 PM 43.0°F6.1°C 41.4°F5.2°C 94% Calm Calm -- 29.62 in1003.0 mb - 0.01 in0.3 mm 0.28 in7.1 mm
01:50 PM 42.7°F5.9°C 41.1°F5.1°C 94% Calm Calm -- 29.62 in1003.0 mb - 0.00 in0.0 mm 0.28 in7.1 mm
02:00 PM 42.7°F5.9°C 41.1°F5.1°C 94% 1.2 mph SE1.9 kmh SE 2.3 mph3.7 kmh 29.63 in1003.4 mb - 0.01 in0.3 mm 0.29 in7.4 mm
02:10 PM 42.6°F5.9°C 41.0°F5.0°C 94% Calm Calm 3.5 mph5.6 kmh 29.63 in1003.4 mb - 0.01 in0.3 mm 0.30 in7.6 mm
02:20 PM 42.7°F5.9°C 41.1°F5.1°C 94% 1.2 mph ESE1.9 kmh ESE 3.5 mph5.6 kmh 29.63 in1003.4 mb - 0.01 in0.3 mm 0.31 in7.9 mm
02:30 PM 42.5°F5.8°C 40.9°F4.9°C 94% 1.2 mph ESE1.9 kmh ESE 2.3 mph3.7 kmh 29.62 in1003.0 mb - 0.00 in0.0 mm 0.31 in7.9 mm
02:40 PM 42.5°F5.8°C 40.9°F4.9°C 94% 1.2 mph S1.9 kmh S 2.3 mph3.7 kmh 29.63 in1003.4 mb - 0.01 in0.3 mm 0.32 in8.1 mm
02:50 PM 42.5°F5.8°C 40.9°F4.9°C 94% Calm Calm -- 29.62 in1003.0 mb - 0.01 in0.3 mm 0.33 in8.4 mm
03:00 PM 42.3°F5.7°C 40.7°F4.8°C 94% 2.3 mph SSE3.7 kmh SSE 3.5 mph5.6 kmh 29.63 in1003.4 mb - 0.01 in0.3 mm 0.34 in8.6 mm
03:10 PM 42.3°F5.7°C 40.7°F4.8°C 94% 1.2 mph S1.9 kmh S 2.3 mph3.7 kmh 29.63 in1003.4 mb - 0.01 in0.3 mm 0.35 in8.9 mm
03:20 PM 42.3°F5.7°C 40.7°F4.8°C 94% Calm Calm -- 29.63 in1003.4 mb - 0.00 in0.0 mm 0.35 in8.9 mm
03:30 PM 42.2°F5.7°C 40.6°F4.8°C 94% 3.5 mph SE5.6 kmh SE 4.6 mph7.4 kmh 29.64 in1003.7 mb - 0.02 in0.5 mm 0.37 in9.4 mm
03:40 PM 41.9°F5.5°C 40.6°F4.8°C 95% Calm Calm 2.3 mph3.7 kmh 29.64 in1003.7 mb - 0.00 in0.0 mm 0.37 in9.4 mm
03:50 PM 41.6°F5.3°C 40.0°F4.4°C 94% 1.2 mph ESE1.9 kmh ESE 3.5 mph5.6 kmh 29.64 in1003.7 mb - 0.00 in0.0 mm 0.37 in9.4 mm
04:00 PM 41.3°F5.2°C 40.0°F4.4°C 95% 2.3 mph ESE3.7 kmh ESE 4.6 mph7.4 kmh 29.64 in1003.7 mb - 0.01 in0.3 mm 0.38 in9.7 mm
04:10 PM 41.2°F5.1°C 39.6°F4.2°C 94% 2.3 mph ESE3.7 kmh ESE 3.5 mph5.6 kmh 29.64 in1003.7 mb - 0.01 in0.3 mm 0.39 in9.9 mm
04:20 PM 41.0°F5.0°C 39.4°F4.1°C 94% 4.6 mph ESE7.4 kmh ESE 6.9 mph11.1 kmh 29.64 in1003.7 mb - 0.01 in0.3 mm 0.40 in10.2 mm
04:30 PM 40.4°F4.7°C 38.5°F3.6°C 93% 3.5 mph E5.6 kmh E 5.8 mph9.3 kmh 29.65 in1004.1 mb - 0.01 in0.3 mm 0.41 in10.4 mm
04:40 PM 39.8°F4.3°C 37.9°F3.3°C 93% 1.2 mph E1.9 kmh E 3.5 mph5.6 kmh 29.65 in1004.1 mb - 0.00 in0.0 mm 0.41 in10.4 mm
04:50 PM 39.7°F4.3°C 37.8°F3.2°C 93% 2.3 mph E3.7 kmh E 3.5 mph5.6 kmh 29.64 in1003.7 mb - 0.00 in0.0 mm 0.41 in10.4 mm
05:00 PM 39.7°F4.3°C 38.1°F3.4°C 94% 1.2 mph E1.9 kmh E 3.5 mph5.6 kmh 29.64 in1003.7 mb - 0.00 in0.0 mm 0.41 in10.4 mm
05:10 PM 39.4°F4.1°C 37.6°F3.1°C 93% 3.5 mph E5.6 kmh E 5.8 mph9.3 kmh 29.64 in1003.7 mb - 0.00 in0.0 mm 0.41 in10.4 mm
05:20 PM 39.3°F4.1°C 37.7°F3.2°C 94% 3.5 mph ESE5.6 kmh ESE 4.6 mph7.4 kmh 29.64 in1003.7 mb - 0.00 in0.0 mm 0.41 in10.4 mm
05:30 PM 39.4°F4.1°C 37.8°F3.2°C 94% 4.6 mph ESE7.4 kmh ESE 4.6 mph7.4 kmh 29.64 in1003.7 mb - 0.01 in0.3 mm 0.42 in10.7 mm
05:40 PM 39.4°F4.1°C 37.8°F3.2°C 94% 1.2 mph ESE1.9 kmh ESE 2.3 mph3.7 kmh 29.64 in1003.7 mb - 0.00 in0.0 mm 0.42 in10.7 mm
05:50 PM 39.5°F4.2°C 37.9°F3.3°C 94% Calm Calm 3.5 mph5.6 kmh 29.64 in1003.7 mb - 0.00 in0.0 mm 0.42 in10.7 mm
06:00 PM 39.5°F4.2°C 37.9°F3.3°C 94% 3.5 mph SE5.6 kmh SE 5.8 mph9.3 kmh 29.64 in1003.7 mb - 0.00 in0.0 mm 0.42 in10.7 mm
06:10 PM 39.5°F4.2°C 37.9°F3.3°C 94% Calm Calm 1.2 mph1.9 kmh 29.64 in1003.7 mb - 0.00 in0.0 mm 0.42 in10.7 mm
06:20 PM 39.6°F4.2°C 38.0°F3.3°C 94% 2.3 mph SSE3.7 kmh SSE 2.3 mph3.7 kmh 29.65 in1004.1 mb - 0.00 in0.0 mm 0.42 in10.7 mm
06:30 PM 39.7°F4.3°C 38.1°F3.4°C 94% 1.2 mph SE1.9 kmh SE 3.5 mph5.6 kmh 29.65 in1004.1 mb - 0.01 in0.3 mm 0.43 in10.9 mm
06:40 PM 39.8°F4.3°C 38.2°F3.4°C 94% 2.3 mph SE3.7 kmh SE 3.5 mph5.6 kmh 29.66 in1004.4 mb - 0.00 in0.0 mm 0.43 in10.9 mm
06:50 PM 39.9°F4.4°C 38.3°F3.5°C 94% 2.3 mph ESE3.7 kmh ESE 3.5 mph5.6 kmh 29.65 in1004.1 mb - 0.00 in0.0 mm 0.43 in10.9 mm
07:00 PM 40.2°F4.6°C 38.6°F3.7°C 94% 1.2 mph ESE1.9 kmh ESE 4.6 mph7.4 kmh 29.65 in1004.1 mb - 0.01 in0.3 mm 0.44 in11.2 mm
07:10 PM 40.2°F4.6°C 38.6°F3.7°C 94% 1.2 mph SE1.9 kmh SE 1.2 mph1.9 kmh 29.66 in1004.4 mb - 0.00 in0.0 mm 0.44 in11.2 mm
07:20 PM 40.2°F4.6°C 38.6°F3.7°C 94% Calm Calm 3.5 mph5.6 kmh 29.66 in1004.4 mb - 0.01 in0.3 mm 0.45 in11.4 mm
07:30 PM 40.3°F4.6°C 38.7°F3.7°C 94% 1.2 mph ESE1.9 kmh ESE 3.5 mph5.6 kmh 29.66 in1004.4 mb - 0.00 in0.0 mm 0.45 in11.4 mm
07:40 PM 40.2°F4.6°C 38.6°F3.7°C 94% 1.2 mph SE1.9 kmh SE 2.3 mph3.7 kmh 29.66 in1004.4 mb - 0.00 in0.0 mm 0.45 in11.4 mm
07:50 PM 40.2°F4.6°C 38.6°F3.7°C 94% 2.3 mph SE3.7 kmh SE 3.5 mph5.6 kmh 29.66 in1004.4 mb - 0.00 in0.0 mm 0.45 in11.4 mm
08:00 PM 40.2°F4.6°C 38.6°F3.7°C 94% 1.2 mph SE1.9 kmh SE 1.2 mph1.9 kmh 29.67 in1004.7 mb - 0.01 in0.3 mm 0.46 in11.7 mm
08:10 PM 40.1°F4.5°C 38.6°F3.7°C 94% Calm Calm 5.8 mph9.3 kmh 29.67 in1004.7 mb - 0.00 in0.0 mm 0.46 in11.7 mm
08:20 PM 40.2°F4.6°C 38.6°F3.7°C 94% 3.5 mph E5.6 kmh E 3.5 mph5.6 kmh 29.67 in1004.7 mb - 0.01 in0.3 mm 0.47 in11.9 mm
08:30 PM 40.2°F4.6°C 38.6°F3.7°C 94% 3.5 mph ESE5.6 kmh ESE 4.6 mph7.4 kmh 29.66 in1004.4 mb - 0.00 in0.0 mm 0.47 in11.9 mm
08:40 PM 40.2°F4.6°C 38.6°F3.7°C 94% 2.3 mph SE3.7 kmh SE 4.6 mph7.4 kmh 29.67 in1004.7 mb - 0.00 in0.0 mm 0.47 in11.9 mm
08:50 PM 40.6°F4.8°C 39.0°F3.9°C 94% 2.3 mph SE3.7 kmh SE 6.9 mph11.1 kmh 29.67 in1004.7 mb - 0.00 in0.0 mm 0.47 in11.9 mm
09:00 PM 40.7°F4.8°C 38.8°F3.8°C 93% 2.3 mph SE3.7 kmh SE 6.9 mph11.1 kmh 29.68 in1005.1 mb - 0.00 in0.0 mm 0.47 in11.9 mm
09:10 PM 40.9°F4.9°C 39.0°F3.9°C 93% 3.5 mph ESE5.6 kmh ESE 5.8 mph9.3 kmh 29.68 in1005.1 mb - 0.00 in0.0 mm 0.47 in11.9 mm
09:20 PM 41.2°F5.1°C 39.0°F3.9°C 92% 1.2 mph E1.9 kmh E 9.2 mph14.8 kmh 29.68 in1005.1 mb - 0.00 in0.0 mm 0.47 in11.9 mm
09:30 PM 41.7°F5.4°C 39.0°F3.9°C 90% 2.3 mph ESE3.7 kmh ESE 3.5 mph5.6 kmh 29.68 in1005.1 mb - 0.00 in0.0 mm 0.47 in11.9 mm
09:40 PM 42.2°F5.7°C 38.9°F3.8°C 88% 2.3 mph NE3.7 kmh NE 4.6 mph7.4 kmh 29.68 in1005.1 mb - 0.00 in0.0 mm 0.47 in11.9 mm
09:50 PM 41.8°F5.4°C 38.8°F3.8°C 89% 3.5 mph SE5.6 kmh SE 4.6 mph7.4 kmh 29.68 in1005.1 mb - 0.01 in0.3 mm 0.48 in12.2 mm
10:00 PM 41.4°F5.2°C 38.7°F3.7°C 90% 2.3 mph SE3.7 kmh SE 3.5 mph5.6 kmh 29.69 in1005.4 mb - 0.01 in0.3 mm 0.49 in12.4 mm
10:10 PM 41.3°F5.2°C 38.6°F3.7°C 90% 2.3 mph ESE3.7 kmh ESE 9.2 mph14.8 kmh 29.68 in1005.1 mb - 0.01 in0.3 mm 0.50 in12.7 mm
10:30 PM 41.0°F5.0°C 38.3°F3.5°C 90% 2.3 mph SE3.7 kmh SE 3.5 mph5.6 kmh 29.69 in1005.4 mb - 0.00 in0.0 mm 0.51 in13.0 mm
10:40 PM 41.2°F5.1°C 38.5°F3.6°C 90% 1.2 mph S1.9 kmh S 6.9 mph11.1 kmh 29.69 in1005.4 mb - 0.00 in0.0 mm 0.51 in13.0 mm
10:50 PM 41.5°F5.3°C 38.5°F3.6°C 89% 6.9 mph SE11.1 kmh SE 11.5 mph18.5 kmh 29.70 in1005.8 mb - 0.00 in0.0 mm 0.51 in13.0 mm
11:00 PM 41.5°F5.3°C 38.2°F3.4°C 88% 1.2 mph NNE1.9 kmh NNE 3.5 mph5.6 kmh 29.70 in1005.8 mb - 0.00 in0.0 mm 0.51 in13.0 mm
11:10 PM 42.8°F6.0°C 38.3°F3.5°C 84% 4.6 mph ESE7.4 kmh ESE 5.8 mph9.3 kmh 29.70 in1005.8 mb - 0.00 in0.0 mm 0.51 in13.0 mm
11:20 PM 42.7°F5.9°C 38.2°F3.4°C 84% 3.5 mph SE5.6 kmh SE 3.5 mph5.6 kmh 29.71 in1006.1 mb - 0.00 in0.0 mm 0.51 in13.0 mm
11:30 PM 42.9°F6.1°C 38.1°F3.4°C 83% 2.3 mph ESE3.7 kmh ESE 4.6 mph7.4 kmh 29.71 in1006.1 mb - 0.00 in0.0 mm 0.51 in13.0 mm
11:40 PM 42.5°F5.8°C 38.3°F3.5°C 85% 3.5 mph SE5.6 kmh SE 5.8 mph9.3 kmh 29.71 in1006.1 mb - 0.02 in0.5 mm 0.53 in13.5 mm
11:50 PM 42.5°F5.8°C 38.3°F3.5°C 85% 3.5 mph ENE5.6 kmh ENE 5.8 mph9.3 kmh 29.71 in1006.1 mb - 0.01 in0.3 mm 0.53 in13.5 mm